sensor_id;sensor_type;location;lat;lon;timestamp;temperature;humidity
52073;DHT22;38074;51.232;6.826;2022-07-23T00:01:39;26.70;50.90
52073;DHT22;38074;51.232;6.826;2022-07-23T00:08:56;26.70;50.90
52073;DHT22;38074;51.232;6.826;2022-07-23T00:16:12;26.70;51.00
52073;DHT22;38074;51.232;6.826;2022-07-23T00:23:27;26.70;51.00
52073;DHT22;38074;51.232;6.826;2022-07-23T00:30:44;26.70;51.00
52073;DHT22;38074;51.232;6.826;2022-07-23T00:38:00;26.70;50.90
52073;DHT22;38074;51.232;6.826;2022-07-23T00:45:16;26.70;51.00
52073;DHT22;38074;51.232;6.826;2022-07-23T00:52:32;26.70;51.20
52073;DHT22;38074;51.232;6.826;2022-07-23T00:59:48;26.70;51.20
52073;DHT22;38074;51.232;6.826;2022-07-23T01:07:04;26.70;51.00
52073;DHT22;38074;51.232;6.826;2022-07-23T01:14:19;26.70;51.30
52073;DHT22;38074;51.232;6.826;2022-07-23T01:21:48;26.70;51.30
52073;DHT22;38074;51.232;6.826;2022-07-23T01:29:04;26.60;51.20
52073;DHT22;38074;51.232;6.826;2022-07-23T01:36:20;26.60;51.20
52073;DHT22;38074;51.232;6.826;2022-07-23T01:43:35;26.70;51.40
52073;DHT22;38074;51.232;6.826;2022-07-23T01:50:51;26.60;51.30
52073;DHT22;38074;51.232;6.826;2022-07-23T01:58:07;26.70;51.30
52073;DHT22;38074;51.232;6.826;2022-07-23T02:05:22;26.70;51.30
52073;DHT22;38074;51.232;6.826;2022-07-23T02:12:38;26.70;51.40
52073;DHT22;38074;51.232;6.826;2022-07-23T02:19:53;26.70;51.40
52073;DHT22;38074;51.232;6.826;2022-07-23T02:27:09;26.70;51.50
52073;DHT22;38074;51.232;6.826;2022-07-23T02:34:24;26.70;51.50
52073;DHT22;38074;51.232;6.826;2022-07-23T02:41:40;26.70;51.40
52073;DHT22;38074;51.232;6.826;2022-07-23T02:48:55;26.60;51.50
52073;DHT22;38074;51.232;6.826;2022-07-23T02:56:11;26.70;51.50
52073;DHT22;38074;51.232;6.826;2022-07-23T03:03:26;26.70;51.60
52073;DHT22;38074;51.232;6.826;2022-07-23T03:10:42;26.60;51.40
52073;DHT22;38074;51.232;6.826;2022-07-23T03:17:58;26.70;52.20
52073;DHT22;38074;51.232;6.826;2022-07-23T03:25:13;26.70;51.60
52073;DHT22;38074;51.232;6.826;2022-07-23T03:32:29;26.70;51.50
52073;DHT22;38074;51.232;6.826;2022-07-23T03:39:44;26.70;51.50
52073;DHT22;38074;51.232;6.826;2022-07-23T03:47:00;26.70;51.60
52073;DHT22;38074;51.232;6.826;2022-07-23T03:54:16;26.70;51.60
52073;DHT22;38074;51.232;6.826;2022-07-23T04:01:31;26.60;51.50
52073;DHT22;38074;51.232;6.826;2022-07-23T04:08:47;26.70;51.60
52073;DHT22;38074;51.232;6.826;2022-07-23T04:16:03;26.70;51.60
52073;DHT22;38074;51.232;6.826;2022-07-23T04:23:19;26.60;51.50
52073;DHT22;38074;51.232;6.826;2022-07-23T04:30:34;26.70;51.50
52073;DHT22;38074;51.232;6.826;2022-07-23T04:37:50;26.70;51.50
52073;DHT22;38074;51.232;6.826;2022-07-23T04:45:06;26.70;51.50
52073;DHT22;38074;51.232;6.826;2022-07-23T04:52:22;26.70;51.50
52073;DHT22;38074;51.232;6.826;2022-07-23T04:59:37;26.70;51.50
52073;DHT22;38074;51.232;6.826;2022-07-23T05:06:53;26.70;51.50
52073;DHT22;38074;51.232;6.826;2022-07-23T05:14:08;26.60;51.50
52073;DHT22;38074;51.232;6.826;2022-07-23T05:21:24;26.60;51.40
52073;DHT22;38074;51.232;6.826;2022-07-23T05:28:40;26.70;51.50
52073;DHT22;38074;51.232;6.826;2022-07-23T05:36:01;26.60;51.50
52073;DHT22;38074;51.232;6.826;2022-07-23T05:43:16;26.70;51.60
52073;DHT22;38074;51.232;6.826;2022-07-23T05:50:32;26.60;51.60
52073;DHT22;38074;51.232;6.826;2022-07-23T05:57:48;26.70;51.60
52073;DHT22;38074;51.232;6.826;2022-07-23T06:05:04;26.60;51.50
52073;DHT22;38074;51.232;6.826;2022-07-23T06:12:20;26.60;51.60
52073;DHT22;38074;51.232;6.826;2022-07-23T06:19:36;26.60;51.70
52073;DHT22;38074;51.232;6.826;2022-07-23T06:26:51;26.70;51.80
52073;DHT22;38074;51.232;6.826;2022-07-23T06:34:07;26.70;51.80
52073;DHT22;38074;51.232;6.826;2022-07-23T06:41:22;26.70;51.90
52073;DHT22;38074;51.232;6.826;2022-07-23T06:48:38;26.70;51.80
52073;DHT22;38074;51.232;6.826;2022-07-23T06:55:53;26.70;51.80
52073;DHT22;38074;51.232;6.826;2022-07-23T07:03:09;26.70;51.80
52073;DHT22;38074;51.232;6.826;2022-07-23T07:10:24;26.70;51.90
52073;DHT22;38074;51.232;6.826;2022-07-23T07:17:40;26.70;51.80
52073;DHT22;38074;51.232;6.826;2022-07-23T07:24:57;26.70;51.90
52073;DHT22;38074;51.232;6.826;2022-07-23T07:32:13;26.70;51.90
52073;DHT22;38074;51.232;6.826;2022-07-23T07:39:28;26.70;51.90
52073;DHT22;38074;51.232;6.826;2022-07-23T07:46:44;26.70;52.00
52073;DHT22;38074;51.232;6.826;2022-07-23T07:53:59;26.70;51.90
52073;DHT22;38074;51.232;6.826;2022-07-23T08:01:15;26.70;51.80
52073;DHT22;38074;51.232;6.826;2022-07-23T08:08:30;26.70;51.80
52073;DHT22;38074;51.232;6.826;2022-07-23T08:15:46;26.70;51.80
52073;DHT22;38074;51.232;6.826;2022-07-23T08:23:08;26.70;52.40
52073;DHT22;38074;51.232;6.826;2022-07-23T08:30:25;26.70;51.70
52073;DHT22;38074;51.232;6.826;2022-07-23T08:37:40;26.70;51.70
52073;DHT22;38074;51.232;6.826;2022-07-23T08:44:56;26.70;51.70
52073;DHT22;38074;51.232;6.826;2022-07-23T08:52:12;26.70;51.60
52073;DHT22;38074;51.232;6.826;2022-07-23T08:59:29;26.70;51.60
52073;DHT22;38074;51.232;6.826;2022-07-23T09:06:45;26.70;51.50
52073;DHT22;38074;51.232;6.826;2022-07-23T09:14:00;26.70;51.40
52073;DHT22;38074;51.232;6.826;2022-07-23T09:28:50;26.80;51.40
52073;DHT22;38074;51.232;6.826;2022-07-23T09:36:06;26.70;51.30
52073;DHT22;38074;51.232;6.826;2022-07-23T09:43:28;26.70;51.30
52073;DHT22;38074;51.232;6.826;2022-07-23T09:50:44;26.70;51.20
52073;DHT22;38074;51.232;6.826;2022-07-23T09:57:59;26.80;51.20
52073;DHT22;38074;51.232;6.826;2022-07-23T10:05:15;26.70;51.00
52073;DHT22;38074;51.232;6.826;2022-07-23T10:12:32;26.70;51.00
52073;DHT22;38074;51.232;6.826;2022-07-23T10:19:48;26.70;51.00
52073;DHT22;38074;51.232;6.826;2022-07-23T10:34:52;26.70;50.80
52073;DHT22;38074;51.232;6.826;2022-07-23T10:42:15;26.70;50.70
52073;DHT22;38074;51.232;6.826;2022-07-23T10:49:32;26.70;50.70
52073;DHT22;38074;51.232;6.826;2022-07-23T11:04:12;26.70;50.30
52073;DHT22;38074;51.232;6.826;2022-07-23T11:11:28;26.70;50.10
52073;DHT22;38074;51.232;6.826;2022-07-23T11:25:59;26.70;50.00
52073;DHT22;38074;51.232;6.826;2022-07-23T11:33:18;26.70;49.90
52073;DHT22;38074;51.232;6.826;2022-07-23T11:40:35;26.70;49.90
52073;DHT22;38074;51.232;6.826;2022-07-23T11:47:50;26.70;49.70
52073;DHT22;38074;51.232;6.826;2022-07-23T11:55:09;26.70;49.80
52073;DHT22;38074;51.232;6.826;2022-07-23T12:02:25;26.70;49.60
52073;DHT22;38074;51.232;6.826;2022-07-23T12:09:44;26.70;49.70
52073;DHT22;38074;51.232;6.826;2022-07-23T12:17:09;26.70;49.60
52073;DHT22;38074;51.232;6.826;2022-07-23T12:24:25;26.70;49.60
52073;DHT22;38074;51.232;6.826;2022-07-23T12:31:40;26.70;49.60
52073;DHT22;38074;51.232;6.826;2022-07-23T12:38:56;26.70;49.70
52073;DHT22;38074;51.232;6.826;2022-07-23T12:46:17;26.70;49.60
52073;DHT22;38074;51.232;6.826;2022-07-23T12:53:41;26.70;49.50
52073;DHT22;38074;51.232;6.826;2022-07-23T13:01:03;26.70;49.40
52073;DHT22;38074;51.232;6.826;2022-07-23T13:08:19;26.70;49.40
52073;DHT22;38074;51.232;6.826;2022-07-23T13:15:35;26.70;49.50
52073;DHT22;38074;51.232;6.826;2022-07-23T13:22:51;26.70;49.30
52073;DHT22;38074;51.232;6.826;2022-07-23T13:30:07;26.80;49.40
52073;DHT22;38074;51.232;6.826;2022-07-23T13:37:24;26.80;49.40
52073;DHT22;38074;51.232;6.826;2022-07-23T13:44:40;26.70;49.20
52073;DHT22;38074;51.232;6.826;2022-07-23T13:51:56;26.70;49.20
52073;DHT22;38074;51.232;6.826;2022-07-23T13:59:13;26.80;49.20
52073;DHT22;38074;51.232;6.826;2022-07-23T14:06:29;26.70;49.10
52073;DHT22;38074;51.232;6.826;2022-07-23T14:13:45;26.70;49.20
52073;DHT22;38074;51.232;6.826;2022-07-23T14:21:00;26.80;49.20
52073;DHT22;38074;51.232;6.826;2022-07-23T14:28:16;26.80;49.20
52073;DHT22;38074;51.232;6.826;2022-07-23T14:35:31;26.80;49.20
52073;DHT22;38074;51.232;6.826;2022-07-23T14:42:47;26.80;49.20
52073;DHT22;38074;51.232;6.826;2022-07-23T14:50:03;26.80;49.20
52073;DHT22;38074;51.232;6.826;2022-07-23T14:57:19;26.70;49.10
52073;DHT22;38074;51.232;6.826;2022-07-23T15:04:34;26.80;49.10
52073;DHT22;38074;51.232;6.826;2022-07-23T15:11:50;26.80;49.10
52073;DHT22;38074;51.232;6.826;2022-07-23T15:19:05;26.80;49.10
52073;DHT22;38074;51.232;6.826;2022-07-23T15:26:21;26.70;49.00
52073;DHT22;38074;51.232;6.826;2022-07-23T15:33:38;26.80;49.20
52073;DHT22;38074;51.232;6.826;2022-07-23T15:40:55;26.80;49.00
52073;DHT22;38074;51.232;6.826;2022-07-23T15:48:12;26.80;48.90
52073;DHT22;38074;51.232;6.826;2022-07-23T15:55:27;26.80;48.90
52073;DHT22;38074;51.232;6.826;2022-07-23T16:02:43;26.80;48.90
52073;DHT22;38074;51.232;6.826;2022-07-23T16:09:59;26.80;48.90
52073;DHT22;38074;51.232;6.826;2022-07-23T16:17:14;26.80;48.90
52073;DHT22;38074;51.232;6.826;2022-07-23T16:24:30;26.80;48.90
52073;DHT22;38074;51.232;6.826;2022-07-23T16:31:45;26.80;48.80
52073;DHT22;38074;51.232;6.826;2022-07-23T16:39:02;26.80;48.80
52073;DHT22;38074;51.232;6.826;2022-07-23T16:46:17;26.80;48.80
52073;DHT22;38074;51.232;6.826;2022-07-23T16:53:36;26.80;48.80
52073;DHT22;38074;51.232;6.826;2022-07-23T17:00:52;26.80;48.80
52073;DHT22;38074;51.232;6.826;2022-07-23T17:08:07;26.80;48.70
52073;DHT22;38074;51.232;6.826;2022-07-23T17:15:23;26.80;48.70
52073;DHT22;38074;51.232;6.826;2022-07-23T17:22:39;26.80;48.60
52073;DHT22;38074;51.232;6.826;2022-07-23T17:29:58;26.80;48.60
52073;DHT22;38074;51.232;6.826;2022-07-23T17:37:14;26.70;48.50
52073;DHT22;38074;51.232;6.826;2022-07-23T17:44:30;26.70;48.50
52073;DHT22;38074;51.232;6.826;2022-07-23T17:51:46;26.80;48.60
52073;DHT22;38074;51.232;6.826;2022-07-23T17:59:02;26.70;48.40
52073;DHT22;38074;51.232;6.826;2022-07-23T18:06:18;26.80;49.10
52073;DHT22;38074;51.232;6.826;2022-07-23T18:13:34;26.80;48.40
52073;DHT22;38074;51.232;6.826;2022-07-23T18:20:50;26.70;48.40
52073;DHT22;38074;51.232;6.826;2022-07-23T18:28:06;26.80;48.50
52073;DHT22;38074;51.232;6.826;2022-07-23T18:35:21;26.70;48.40
52073;DHT22;38074;51.232;6.826;2022-07-23T18:42:37;26.80;48.40
52073;DHT22;38074;51.232;6.826;2022-07-23T18:49:53;26.80;48.40
52073;DHT22;38074;51.232;6.826;2022-07-23T18:57:08;26.80;48.40
52073;DHT22;38074;51.232;6.826;2022-07-23T19:04:24;26.70;48.30
52073;DHT22;38074;51.232;6.826;2022-07-23T19:11:40;26.80;48.40
52073;DHT22;38074;51.232;6.826;2022-07-23T19:18:56;26.80;48.50
52073;DHT22;38074;51.232;6.826;2022-07-23T19:26:11;26.80;48.40
52073;DHT22;38074;51.232;6.826;2022-07-23T19:33:27;26.80;48.40
52073;DHT22;38074;51.232;6.826;2022-07-23T19:40:42;26.80;48.50
52073;DHT22;38074;51.232;6.826;2022-07-23T19:47:58;26.80;48.50
52073;DHT22;38074;51.232;6.826;2022-07-23T19:55:13;26.80;48.60
52073;DHT22;38074;51.232;6.826;2022-07-23T20:02:29;26.70;48.60
52073;DHT22;38074;51.232;6.826;2022-07-23T20:09:45;26.70;48.60
52073;DHT22;38074;51.232;6.826;2022-07-23T20:17:01;26.80;48.70
52073;DHT22;38074;51.232;6.826;2022-07-23T20:24:17;26.80;48.80
52073;DHT22;38074;51.232;6.826;2022-07-23T20:31:34;26.80;48.90
52073;DHT22;38074;51.232;6.826;2022-07-23T20:38:49;26.80;48.90
52073;DHT22;38074;51.232;6.826;2022-07-23T20:46:05;26.80;49.00
52073;DHT22;38074;51.232;6.826;2022-07-23T20:53:21;26.80;49.10
52073;DHT22;38074;51.232;6.826;2022-07-23T21:00:36;26.80;49.10
52073;DHT22;38074;51.232;6.826;2022-07-23T21:07:52;26.80;49.20
52073;DHT22;38074;51.232;6.826;2022-07-23T21:15:08;26.70;49.20
52073;DHT22;38074;51.232;6.826;2022-07-23T21:22:24;26.80;49.30
52073;DHT22;38074;51.232;6.826;2022-07-23T21:29:39;26.80;50.00
52073;DHT22;38074;51.232;6.826;2022-07-23T21:36:55;26.70;49.30
52073;DHT22;38074;51.232;6.826;2022-07-23T21:44:10;26.80;49.50
52073;DHT22;38074;51.232;6.826;2022-07-23T21:51:27;26.80;49.50
52073;DHT22;38074;51.232;6.826;2022-07-23T21:58:42;26.70;49.50
52073;DHT22;38074;51.232;6.826;2022-07-23T22:05:58;26.80;49.40
52073;DHT22;38074;51.232;6.826;2022-07-23T22:13:14;26.70;49.60
52073;DHT22;38074;51.232;6.826;2022-07-23T22:20:29;26.70;49.60
52073;DHT22;38074;51.232;6.826;2022-07-23T22:27:46;26.70;49.60
52073;DHT22;38074;51.232;6.826;2022-07-23T22:35:03;26.70;49.60
52073;DHT22;38074;51.232;6.826;2022-07-23T22:42:18;26.70;49.60
52073;DHT22;38074;51.232;6.826;2022-07-23T22:49:34;26.70;49.70
52073;DHT22;38074;51.232;6.826;2022-07-23T22:56:49;26.70;49.60
52073;DHT22;38074;51.232;6.826;2022-07-23T23:04:05;26.70;49.70
52073;DHT22;38074;51.232;6.826;2022-07-23T23:11:21;26.70;49.70
52073;DHT22;38074;51.232;6.826;2022-07-23T23:18:37;26.70;49.70
52073;DHT22;38074;51.232;6.826;2022-07-23T23:25:52;26.70;49.70
52073;DHT22;38074;51.232;6.826;2022-07-23T23:33:08;26.70;49.70
52073;DHT22;38074;51.232;6.826;2022-07-23T23:40:23;26.70;49.80
52073;DHT22;38074;51.232;6.826;2022-07-23T23:47:39;26.70;49.80
52073;DHT22;38074;51.232;6.826;2022-07-23T23:54:54;26.70;49.80
